Terminal Aerodrome Forecast
Issued by NWS

Current Version | Previous Version | Graphics & Text | Print | Product List | Glossary On
Versions: 1 2 3 4 5 6 7 8 9 10 11 12 13 14 15 16 17
790
FTUS41 KILN 042328
TAFLUK
TAF
KLUK 042328Z 0500/0524 29005KT P6SM SCT040
     FM050100 30004KT P6SM SKC
     FM051500 22007KT P6SM SCT250
     FM052000 20004KT P6SM BKN250=

USA.gov is the U.S. government's official web portal to all federal, state and local government web resources and services.